Map

Track Data

SID SEASON NUMBER BASIN SUBBASIN NAME ISO_TIME NATURE LAT LON WMO_WIND WMO_PRES WMO_AGENCY TRACK_TYPE DIST2LAND LANDFALL IFLAG USA_AGENCY USA_ATCF_ID USA_LAT USA_LON USA_RECORD USA_STATUS USA_WIND USA_PRES USA_SSHS USA_R34_NE USA_R34_SE USA_R34_SW USA_R34_NW USA_R50_NE USA_R50_SE USA_R50_SW USA_R50_NW USA_R64_NE USA_R64_SE USA_R64_SW USA_R64_NW USA_POCI USA_ROCI USA_RMW USA_EYE TOKYO_LAT TOKYO_LON TOKYO_GRADE TOKYO_WIND TOKYO_PRES TOKYO_R50_DIR TOKYO_R50_LONG TOKYO_R50_SHORT TOKYO_R30_DIR TOKYO_R30_LONG TOKYO_R30_SHORT TOKYO_LAND CMA_LAT CMA_LON CMA_CAT CMA_WIND CMA_PRES HKO_LAT HKO_LON HKO_CAT HKO_WIND HKO_PRES NEWDELHI_LAT NEWDELHI_LON NEWDELHI_GRADE NEWDELHI_WIND NEWDELHI_PRES NEWDELHI_CI NEWDELHI_DP NEWDELHI_POCI REUNION_LAT REUNION_LON REUNION_TYPE REUNION_WIND REUNION_PRES REUNION_TNUM REUNION_CI REUNION_RMW REUNION_R34_NE REUNION_R34_SE REUNION_R34_SW REUNION_R34_NW REUNION_R50_NE REUNION_R50_SE REUNION_R50_SW REUNION_R50_NW REUNION_R64_NE REUNION_R64_SE REUNION_R64_SW REUNION_R64_NW BOM_LAT BOM_LON BOM_TYPE BOM_WIND BOM_PRES BOM_TNUM BOM_CI BOM_RMW BOM_R34_NE BOM_R34_SE BOM_R34_SW BOM_R34_NW BOM_R50_NE BOM_R50_SE BOM_R50_SW BOM_R50_NW BOM_R64_NE BOM_R64_SE BOM_R64_SW BOM_R64_NW BOM_ROCI BOM_POCI BOM_EYE BOM_POS_METHOD BOM_PRES_METHOD NADI_LAT NADI_LON NADI_CAT NADI_WIND NADI_PRES WELLINGTON_LAT WELLINGTON_LON WELLINGTON_WIND WELLINGTON_PRES DS824_LAT DS824_LON DS824_STAGE DS824_WIND DS824_PRES TD9636_LAT TD9636_LON TD9636_STAGE TD9636_WIND TD9636_PRES TD9635_LAT TD9635_LON TD9635_WIND TD9635_PRES TD9635_ROCI NEUMANN_LAT NEUMANN_LON NEUMANN_CLASS NEUMANN_WIND NEUMANN_PRES MLC_LAT MLC_LON MLC_CLASS MLC_WIND MLC_PRES USA_GUST BOM_GUST BOM_GUST_PER REUNION_GUST REUNION_GUST_PER USA_SEAHGT USA_SEARAD_NE USA_SEARAD_SE USA_SEARAD_SW USA_SEARAD_NW STORM_SPEED STORM_DIR
1898255N13281 1898 39 NA CS NOT_NAMED 1898-09-12 06:00:00 TS 12.9000 -79.1000 50 hurdat_atl main 380 380 O_____________ hurdat_atl AL051898 12.9000 -79.1000 TS 50 0 5 305
1898255N13281 1898 39 NA CS NOT_NAMED 1898-09-12 09:00:00 TS 13.0501 -79.3199 main 403 403 P_____________ AL051898 13.0501 -79.3199 TS 50 0 5 308
1898255N13281 1898 39 NA CS NOT_NAMED 1898-09-12 12:00:00 TS 13.2000 -79.5000 50 hurdat_atl main 414 404 O_____________ hurdat_atl AL051898 13.2000 -79.5000 TS 50 0 4 316
1898255N13281 1898 39 NA CS NOT_NAMED 1898-09-12 15:00:00 TS 13.3500 -79.6150 main 404 388 P_____________ AL051898 13.3500 -79.6150 TS 50 0 4 327
1898255N13281 1898 39 NA CS NOT_NAMED 1898-09-12 18:00:00 TS 13.5000 -79.7000 50 hurdat_atl main 388 375 O_____________ hurdat_atl AL051898 13.5000 -79.7000 TS 50 0 3 330
1898255N13281 1898 39 NA CS NOT_NAMED 1898-09-12 21:00:00 TS 13.6500 -79.7925 main 375 360 P_____________ AL051898 13.6500 -79.7925 TS 50 0 4 327
1898255N13281 1898 39 NA CS NOT_NAMED 1898-09-13 00:00:00 TS 13.8000 -79.9000 50 hurdat_atl main 360 348 O_____________ hurdat_atl AL051898 13.8000 -79.9000 TS 50 0 4 320
1898255N13281 1898 39 NA CS NOT_NAMED 1898-09-13 03:00:00 TS 13.9500 -80.0500 main 346 324 P_____________ AL051898 13.9500 -80.0500 TS 50 0 4 316
1898255N13281 1898 39 NA CS NOT_NAMED 1898-09-13 06:00:00 TS 14.1000 -80.2000 50 hurdat_atl main 324 312 O_____________ hurdat_atl AL051898 14.1000 -80.2000 TS 50 0 4 321
1898255N13281 1898 39 NA CS NOT_NAMED 1898-09-13 09:00:00 TS 14.2500 -80.3000 main 312 298 P_____________ AL051898 14.2500 -80.3000 TS 50 0 4 327
1898255N13281 1898 39 NA CS NOT_NAMED 1898-09-13 12:00:00 TS 14.4000 -80.4000 50 hurdat_atl main 298 285 O_____________ hurdat_atl AL051898 14.4000 -80.4000 TS 50 0 4 322
1898255N13281 1898 39 NA CS NOT_NAMED 1898-09-13 15:00:00 TS 14.5575 -80.5500 main 283 260 P_____________ AL051898 14.5575 -80.5500 TS 50 0 4 316
1898255N13281 1898 39 NA CS NOT_NAMED 1898-09-13 18:00:00 TS 14.7000 -80.7000 50 hurdat_atl main 260 248 O_____________ hurdat_atl AL051898 14.7000 -80.7000 TS 50 0 3 315
1898255N13281 1898 39 NA CS NOT_NAMED 1898-09-13 21:00:00 TS 14.8000 -80.8001 main 248 236 P_____________ AL051898 14.8000 -80.8001 TS 50 0 3 316
1898255N13281 1898 39 NA CS NOT_NAMED 1898-09-14 00:00:00 TS 14.9000 -80.9000 50 hurdat_atl main 236 225 O_____________ hurdat_atl AL051898 14.9000 -80.9000 TS 50 0 3 317
1898255N13281 1898 39 NA CS NOT_NAMED 1898-09-14 03:00:00 TS 15.0500 -81.0425 main 225 205 P_____________ AL051898 15.0500 -81.0425 TS 50 0 4 316
1898255N13281 1898 39 NA CS NOT_NAMED 1898-09-14 06:00:00 TS 15.2000 -81.2000 50 hurdat_atl main 205 194 O_____________ hurdat_atl AL051898 15.2000 -81.2000 TS 50 0 4 311
1898255N13281 1898 39 NA CS NOT_NAMED 1898-09-14 09:00:00 TS 15.3075 -81.3500 main 185 177 P_____________ AL051898 15.3075 -81.3500 TS 50 0 4 305
1898255N13281 1898 39 NA CS NOT_NAMED 1898-09-14 12:00:00 TS 15.4000 -81.5000 50 hurdat_atl main 177 167 O_____________ hurdat_atl AL051898 15.4000 -81.5000 TS 50 0 3 303
1898255N13281 1898 39 NA CS NOT_NAMED 1898-09-14 15:00:00 TS 15.4925 -81.6500 main 160 154 P_____________ AL051898 15.4925 -81.6500 TS 50 0 4 305
1898255N13281 1898 39 NA CS NOT_NAMED 1898-09-14 18:00:00 TS 15.6000 -81.8000 50 hurdat_atl main 154 150 O_____________ hurdat_atl AL051898 15.6000 -81.8000 TS 50 0 4 312
1898255N13281 1898 39 NA CS NOT_NAMED 1898-09-14 21:00:00 TS 15.7500 -81.9425 main 150 147 P_____________ AL051898 15.7500 -81.9425 TS 50 0 4 316
1898255N13281 1898 39 NA CS NOT_NAMED 1898-09-15 00:00:00 TS 15.9000 -82.1000 50 hurdat_atl main 147 139 O_____________ hurdat_atl AL051898 15.9000 -82.1000 TS 50 0 4 309
1898255N13281 1898 39 NA CS NOT_NAMED 1898-09-15 03:00:00 TS 16.0075 -82.2775 main 141 131 P_____________ AL051898 16.0075 -82.2775 TS 50 0 4 297
1898255N13281 1898 39 NA CS NOT_NAMED 1898-09-15 06:00:00 TS 16.1000 -82.5000 50 hurdat_atl main 131 123 O_____________ hurdat_atl AL051898 16.1000 -82.5000 TS 50 0 5 292
1898255N13281 1898 39 NA CS NOT_NAMED 1898-09-15 09:00:00 TS 16.1924 -82.7626 main 119 114 P_____________ AL051898 16.1924 -82.7626 TS 50 0 6 289
1898255N13281 1898 39 NA CS NOT_NAMED 1898-09-15 12:00:00 TS 16.3000 -83.1000 50 hurdat_atl main 116 104 O_____________ hurdat_atl AL051898 16.3000 -83.1000 TS 50 0 8 289
1898255N13281 1898 39 NA CS NOT_NAMED 1898-09-15 15:00:00 TS 16.4424 -83.5125 main 104 94 P_____________ AL051898 16.4424 -83.5125 TS 50 0 9 289
1898255N13281 1898 39 NA CS NOT_NAMED 1898-09-15 18:00:00 TS 16.6000 -84.0000 50 hurdat_atl main 95 92 O_____________ hurdat_atl AL051898 16.6000 -84.0000 TS 50 0 10 288
1898255N13281 1898 39 NA CS NOT_NAMED 1898-09-15 21:00:00 TS 16.7499 -84.5276 main 92 92 P_____________ AL051898 16.7499 -84.5276 TS 50 0 11 286
1898255N13281 1898 39 NA CS NOT_NAMED 1898-09-16 00:00:00 TS 16.9000 -85.1000 50 hurdat_atl main 111 111 O_____________ hurdat_atl AL051898 16.9000 -85.1000 TS 50 0 12 285
1898255N13281 1898 39 NA CS NOT_NAMED 1898-09-16 03:00:00 TS 17.0424 -85.6927 main 123 123 P_____________ AL051898 17.0424 -85.6927 TS 50 0 12 285
1898255N13281 1898 39 NA CS NOT_NAMED 1898-09-16 06:00:00 TS 17.2000 -86.3000 50 hurdat_atl main 151 130 O_____________ hurdat_atl AL051898 17.2000 -86.3000 TS 50 0 12 287
1898255N13281 1898 39 NA CS NOT_NAMED 1898-09-16 09:00:00 TS 17.3923 -86.9001 main 130 74 P_____________ AL051898 17.3923 -86.9001 TS 50 0 12 289
1898255N13281 1898 39 NA CS NOT_NAMED 1898-09-16 12:00:00 TS 17.6000 -87.5000 50 hurdat_atl main 74 15 O_____________ hurdat_atl AL051898 17.6000 -87.5000 TS 50 0 12 289
1898255N13281 1898 39 NA CS NOT_NAMED 1898-09-16 15:00:00 TS 17.7922 -88.0927 main 15 0 P_____________ AL051898 17.7922 -88.0927 TS 45 0 12 289
1898255N13281 1898 39 NA NA NOT_NAMED 1898-09-16 18:00:00 TS 18.0000 -88.7000 40 hurdat_atl main 0 0 O_____________ hurdat_atl AL051898 18.0000 -88.7000 TS 40 0 13 290
1898255N13281 1898 39 NA NA NOT_NAMED 1898-09-16 21:00:00 TS 18.2349 -89.3427 main 0 0 P_____________ AL051898 18.2349 -89.3427 TS 37 0 13 292
1898255N13281 1898 39 NA NA NOT_NAMED 1898-09-17 00:00:00 TS 18.5000 -90.0000 35 hurdat_atl main 0 0 O_____________ hurdat_atl AL051898 18.5000 -90.0000 TS 35 0 14 293
1898255N13281 1898 39 NA NA NOT_NAMED 1898-09-17 03:00:00 TS 18.7774 -90.6652 main 0 0 P_____________ AL051898 18.7774 -90.6652 TS 37 0 14 296
1898255N13281 1898 39 NA GM NOT_NAMED 1898-09-17 06:00:00 TS 19.1000 -91.3000 40 hurdat_atl main 11 11 O_____________ hurdat_atl AL051898 19.1000 -91.3000 TS 40 0 14 301
1898255N13281 1898 39 NA GM NOT_NAMED 1898-09-17 09:00:00 TS 19.4774 -91.8876 main 79 79 P_____________ AL051898 19.4774 -91.8876 TS 40 0 13 308
1898255N13281 1898 39 NA GM NOT_NAMED 1898-09-17 12:00:00 TS 19.9000 -92.4000 40 hurdat_atl main 145 145 O_____________ hurdat_atl AL051898 19.9000 -92.4000 TS 40 0 13 314
1898255N13281 1898 39 NA GM NOT_NAMED 1898-09-17 15:00:00 TS 20.3424 -92.8526 main 191 191 P_____________ AL051898 20.3424 -92.8526 TS 42 0 12 320
1898255N13281 1898 39 NA GM NOT_NAMED 1898-09-17 18:00:00 TS 20.8000 -93.2000 45 hurdat_atl main 251 251 O_____________ hurdat_atl AL051898 20.8000 -93.2000 TS 45 0 11 329
1898255N13281 1898 39 NA GM NOT_NAMED 1898-09-17 21:00:00 TS 21.2574 -93.4452 main 310 310 P_____________ AL051898 21.2574 -93.4452 TS 45 0 10 338
1898255N13281 1898 39 NA GM NOT_NAMED 1898-09-18 00:00:00 TS 21.7000 -93.6000 45 hurdat_atl main 346 346 O_____________ hurdat_atl AL051898 21.7000 -93.6000 TS 45 0 9 343
1898255N13281 1898 39 NA GM NOT_NAMED 1898-09-18 03:00:00 TS 22.1000 -93.7227 main 368 367 P_____________ AL051898 22.1000 -93.7227 TS 47 0 8 347
1898255N13281 1898 39 NA GM NOT_NAMED 1898-09-18 06:00:00 TS 22.5000 -93.8000 50 hurdat_atl main 374 374 O_____________ hurdat_atl AL051898 22.5000 -93.8000 TS 50 0 9 351
1898255N13281 1898 39 NA GM NOT_NAMED 1898-09-18 09:00:00 TS 22.9425 -93.8650 main 378 378 P_____________ AL051898 22.9425 -93.8650 TS 50 0 9 355
1898255N13281 1898 39 NA GM NOT_NAMED 1898-09-18 12:00:00 TS 23.4000 -93.9000 50 hurdat_atl main 397 386 O_____________ hurdat_atl AL051898 23.4000 -93.9000 TS 50 0 9 358
1898255N13281 1898 39 NA GM NOT_NAMED 1898-09-18 15:00:00 TS 23.8500 -93.9076 main 386 362 P_____________ AL051898 23.8500 -93.9076 TS 50 0 9 0
1898255N13281 1898 39 NA GM NOT_NAMED 1898-09-18 18:00:00 TS 24.3000 -93.9000 50 hurdat_atl main 362 346 O_____________ hurdat_atl AL051898 24.3000 -93.9000 TS 50 0 9 0
1898255N13281 1898 39 NA GM NOT_NAMED 1898-09-18 21:00:00 TS 24.7575 -93.9074 main 343 332 P_____________ AL051898 24.7575 -93.9074 TS 50 0 9 0
1898255N13281 1898 39 NA GM NOT_NAMED 1898-09-19 00:00:00 TS 25.2000 -93.9222 50 hurdat_atl main 332 323 O____________O hurdat_atl AL051898 25.2000 -93.9000 TS 50 0 25.2000 -94.1000 TS 35 9 0
1898255N13281 1898 39 NA GM NOT_NAMED 1898-09-19 03:00:00 TS 25.6300 -93.9055 main 323 319 P____________P AL051898 25.6000 -93.8575 TS 50 0 25.7500 -94.0976 TS 37 9 3
1898255N13281 1898 39 NA GM NOT_NAMED 1898-09-19 06:00:00 TS 26.0818 -93.8818 50 hurdat_atl main 319 296 O____________O hurdat_atl AL051898 26.0000 -93.8000 TS 50 0 26.3000 -94.1000 TS 40 10 3
1898255N13281 1898 39 NA GM NOT_NAMED 1898-09-19 09:00:00 TS 26.5833 -93.8741 main 296 262 P____________P AL051898 26.4500 -93.7574 TS 50 0 26.8500 -94.1074 TS 42 10 3
1898255N13281 1898 39 NA GM NOT_NAMED 1898-09-19 12:00:00 TS 27.0667 -93.8333 50 hurdat_atl main 252 216 O____________O hurdat_atl AL051898 26.9000 -93.7000 TS 50 0 27.4000 -94.1000 TS 45 10 7
1898255N13281 1898 39 NA GM NOT_NAMED 1898-09-19 15:00:00 TS 27.5292 -93.7600 main 216 191 P____________P AL051898 27.3150 -93.6075 TS 50 0 27.9575 -94.0650 TS 45 9 9
1898255N13281 1898 39 NA GM NOT_NAMED 1898-09-19 18:00:00 TS 27.9667 -93.6667 50 hurdat_atl main 184 157 O____________O hurdat_atl AL051898 27.7000 -93.5000 TS 50 0 28.5000 -94.0000 TS 45 9 11
1898255N13281 1898 39 NA GM NOT_NAMED 1898-09-19 21:00:00 TS 28.3716 -93.5741 main 146 115 P____________P AL051898 28.0575 -93.4073 TS 50 0 29.0000 -93.9075 TS 45 8 13
1898255N13281 1898 39 NA GM NOT_NAMED 1898-09-20 00:00:00 TS 28.7667 -93.4667 50 hurdat_atl main 104 66 O____________O hurdat_atl AL051898 28.4000 -93.3000 TS 50 0 29.5000 -93.8000 TS 45 8 14
1898255N13281 1898 39 NA GM NOT_NAMED 1898-09-20 03:00:00 TS 29.1888 -93.3349 main 66 22 P____________P AL051898 28.7582 -93.1524 TS 50 0 30.0500 -93.6999 TS 42 9 16
1898255N13281 1898 39 NA GM NOT_NAMED 1898-09-20 06:00:00 TS 29.6000 -93.2000 50 hurdat_atl main 22 0 O____________O hurdat_atl AL051898 29.1000 -93.0000 TS 50 0 30.6000 -93.6000 TS 40 8 18
1898255N13281 1898 39 NA NA NOT_NAMED 1898-09-20 09:00:00 TS 29.9219 -93.0663 main 0 0 P____________P AL051898 29.3329 -92.8495 TS 50 0 31.1000 -93.4999 TS 37 8 15
1898255N13281 1898 39 NA NA NOT_NAMED 1898-09-20 11:00:00 TS 30.2101 -93.0111 50 hurdat_atl main 0 0 O____________P hurdat_atl AL051898 29.6000 -92.8000 L TS 50 0 31.4302 -93.4333 TS 35 10 7
1898255N13281 1898 39 NA NA NOT_NAMED 1898-09-20 12:00:00 TS 30.4000 -93.0000 45 hurdat_atl main 0 0 O____________O hurdat_atl AL051898 29.8000 -92.8000 TS 45 0 31.6000 -93.4000 TS 35 10 9
1898255N13281 1898 39 NA NA NOT_NAMED 1898-09-20 15:00:00 TS 30.8577 -92.8897 main 0 0 P____________P AL051898 30.2115 -92.6846 TS 42 0 32.1500 -93.2999 TS 32 9 15
1898255N13281 1898 39 NA NA NOT_NAMED 1898-09-20 18:00:00 TS 31.2333 -92.7333 40 hurdat_atl main 0 0 O____________O hurdat_atl AL051898 30.5000 -92.5000 TS 40 0 32.7000 -93.2000 TD 30 8 16
1898255N13281 1898 39 NA NA NOT_NAMED 1898-09-20 21:00:00 TS 31.6666 -92.6233 main 0 0 P____________P AL051898 30.9000 -92.3998 TS 37 0 33.2000 -93.0704 TD 30 9 11
1898255N13281 1898 39 NA NA NOT_NAMED 1898-09-21 00:00:00 TS 32.1000 -92.5333 35 hurdat_atl main 0 0 O____________O hurdat_atl AL051898 31.3000 -92.3000 TS 35 0 33.7000 -93.0000 TD 30 9 10
1898255N13281 1898 39 NA NA NOT_NAMED 1898-09-21 03:00:00 TS 32.5191 -92.4468 main 0 0 P____________P AL051898 31.6575 -92.1574 TS 35 0 34.2423 -93.0255 TD 30 8 8
1898255N13281 1898 39 NA NA NOT_NAMED 1898-09-21 06:00:00 TS 32.9333 -92.4000 35 hurdat_atl main 0 0 O____________O hurdat_atl AL051898 32.0000 -92.0000 TS 35 0 34.8000 -93.2000 TD 30 8 0
1898255N13281 1898 39 NA NA NOT_NAMED 1898-09-21 09:00:00 TS 33.3252 -92.4474 main 0 0 P____________P AL051898 32.3125 -91.8571 TS 32 -1 35.3506 -93.6281 TD 30 8 356
1898255N13281 1898 39 NA NA NOT_NAMED 1898-09-21 12:00:00 TS 33.7667 -92.4667 30 hurdat_atl main 0 0 O____________O hurdat_atl AL051898 32.7000 -91.7000 TD 30 -1 35.9000 -94.0000 TD 30 10 6
1898255N13281 1898 39 NA NA NOT_NAMED 1898-09-21 15:00:00 TS 34.2924 -92.3352 main 0 0 P____________P AL051898 33.2101 -91.4999 TD 30 -1 36.4572 -94.0059 TD 30 12 13
1898255N13281 1898 39 NA NA NOT_NAMED 1898-09-21 18:00:00 MX 34.9333 -92.1333 30 hurdat_atl main 0 0 O____________O hurdat_atl AL051898 33.9000 -91.3000 TD 30 -1 37.0000 -93.8000 EX 30 14 13
1898255N13281 1898 39 NA NA NOT_NAMED 1898-09-21 21:00:00 MX 35.6858 -91.9477 main 0 0 P____________P AL051898 34.7750 -91.1565 TD 30 -1 37.5076 -93.5301 EX 30 16 11
1898255N13281 1898 39 NA NA NOT_NAMED 1898-09-22 00:00:00 MX 36.5333 -91.7333 30 hurdat_atl main 0 0 O____________O hurdat_atl AL051898 35.8000 -91.0000 TD 30 -1 38.0000 -93.2000 EX 30 18 12
1898255N13281 1898 39 NA NA NOT_NAMED 1898-09-22 03:00:00 MX 37.4333 -91.4767 main 0 0 P____________P AL051898 36.9000 -90.7653 TD 27 -1 38.4999 -92.8996 EX 27 19 9
1898255N13281 1898 39 NA NA NOT_NAMED 1898-09-22 06:00:00 MX 38.4000 -91.3400 25 hurdat_atl main 0 0 O____________O hurdat_atl AL051898 38.0000 -90.5000 TD 25 -1 39.0000 -92.6000 EX 25 18 4
1898255N13281 1898 39 NA NA NOT_NAMED 1898-09-22 09:00:00 MX 39.2430 -91.3240 main 0 0 P____________P AL051898 38.9875 -90.2457 TD 25 -1 39.4985 -92.4022 EX 25 16 0
1898255N13281 1898 39 NA NA NOT_NAMED 1898-09-22 12:00:00 MX 39.9667 -91.3333 25 hurdat_atl main 0 0 O____________O hurdat_atl AL051898 39.9000 -90.0000 TD 25 -1 40.0000 -92.0000 EX 25 13 6
1898255N13281 1898 39 NA NA NOT_NAMED 1898-09-22 15:00:00 ET 40.5002 -91.1423 main 0 0 _____________P AL051898 TD -1 40.5002 -91.1423 EX 25 14 44
1898255N13281 1898 39 NA NA NOT_NAMED 1898-09-22 18:00:00 ET 41.0000 -90.0000 main 0 0 _____________O 41.0000 -90.0000 EX 25 20 61
1898255N13281 1898 39 NA NA NOT_NAMED 1898-09-22 21:00:00 ET 41.4998 -88.7864 main 0 0 _____________P 41.4998 -88.7864 EX 25 21 62
1898255N13281 1898 39 NA NA NOT_NAMED 1898-09-23 00:00:00 ET 42.0000 -87.5000 main 0 0 _____________O 42.0000 -87.5000 EX 25 21 62
1898255N13281 1898 39 NA NA NOT_NAMED 1898-09-23 03:00:00 ET 42.4986 -86.2480 main 0 0 _____________P 42.4986 -86.2480 EX 25 21 62
1898255N13281 1898 39 NA NA NOT_NAMED 1898-09-23 06:00:00 ET 43.0000 -85.0000 main 0 0 _____________O 43.0000 -85.0000 EX 25 1004 21 61
1898255N13281 1898 39 NA NA NOT_NAMED 1898-09-23 09:00:00 ET 43.5027 -83.7542 main 0 0 _____________P 43.5027 -83.7542 EX 30 1002 21 61
1898255N13281 1898 39 NA NA NOT_NAMED 1898-09-23 12:00:00 ET 44.0000 -82.5000 main 0 _____________O 44.0000 -82.5000 EX 35 1000 21 61

About IBTrACS Database

This database is a web-friendly format of International Best Track Archive for Climate Stewardship (IBTrACS), a global best track data archive curated by NOAA dating back to 1842.

Updated: 2021-11-26